Wednesday, November 21, 2018, 4:59 AM EST
Back to Local

KMIV, Millville Municipal Airport

Location: Millville, NJ, United States Lat: 39.367
Local Time: 4:59 AM EST ( 9:59 GMT) Lon: -75.083
Time Zone: US/Eastern Elev: 85 ft

Show me the last for .
Show Decoded

2018-11-21 03:54 METAR KMIV 210854Z AUTO 26003KT 10SM CLR M03/M04 A3012 RMK AO2 SLP199 T10281039
                 50000 =
2018-11-21 02:54 METAR KMIV 210754Z AUTO 00000KT 10SM CLR M03/M04 A3012 RMK AO2 SLP201 T10281039
                 =
2018-11-21 01:54 METAR KMIV 210654Z AUTO 00000KT 10SM CLR 00/M03 A3013 RMK AO2 SLP202 T00001028 =
2018-11-21 00:54 METAR KMIV 210554Z AUTO 28003KT 10SM CLR 01/M03 A3012 RMK AO2 SLP199 T00111033
                 10072 20006 50005 =
2018-11-20 23:54 METAR KMIV 210454Z AUTO 27006KT 10SM CLR 02/M03 A3012 RMK AO2 SLP201 T00221033
                 401110022 =
2018-11-20 22:54 METAR KMIV 210354Z AUTO 29012G17KT 10SM CLR 04/M03 A3012 RMK AO2 SLP199
                 T00391028 =
2018-11-20 21:54 METAR KMIV 210254Z AUTO 28007KT 10SM CLR 04/M02 A3010 RMK AO2 SLP193 T00391017
                 51012 =
2018-11-20 20:54 METAR KMIV 210154Z AUTO 25004KT 10SM SCT047 03/M02 A3009 RMK AO2 SLP189
                 T00281022 =
2018-11-20 19:54 METAR KMIV 210054Z AUTO 30010G18KT 10SM BKN048 07/M02 A3008 RMK AO2 SLP185
                 T00671017 =
2018-11-20 18:54 METAR KMIV 202354Z AUTO 31008KT 10SM OVC047 07/M01 A3007 RMK AO2 SLP180
                 T00721011 10111 20067 53032 =
2018-11-20 17:54 METAR KMIV 202254Z AUTO 30009KT 10SM SCT046 07/M01 A3003 RMK AO2 SLP168
                 T00721006 =
2018-11-20 16:54 METAR KMIV 202154Z AUTO 29009KT 10SM FEW049 07/M01 A3000 RMK AO2 SLP157
                 T00721006 =
2018-11-20 15:54 METAR KMIV 202054Z AUTO 31012KT 10SM BKN048 OVC055 09/M01 A2997 RMK AO2 SLP148
                 T00891006 53019 =
2018-11-20 14:54 METAR KMIV 201954Z AUTO 29015G24KT 10SM FEW042 10/M01 A2993 RMK AO2 SLP135
                 T01001006 =
2018-11-20 13:54 METAR KMIV 201854Z AUTO 30015G21KT 10SM BKN039 BKN047 11/01 A2992 RMK AO2 SLP129
                 T01060011 =
2018-11-20 12:54 METAR KMIV 201754Z AUTO 30010KT 10SM SCT032 OVC090 09/03 A2992 RMK AO2 SLP129
                 60000 T00940028 10100 20083 58003 =
2018-11-20 12:30 METAR KMIV 201730Z AUTO 31012G20KT 10SM FEW026 SCT031 BKN038 10/03 A2992 RMK AO2
                 T01000033 =
2018-11-20 11:54 METAR KMIV 201654Z AUTO 31010KT 5SM HZ BKN016 OVC023 09/06 A2992 RMK AO2 SLP132
                 T00940056 =
2018-11-20 11:17 METAR KMIV 201617Z AUTO 30010KT 3SM HZ OVC015 09/06 A2993 RMK AO2 T00890061 =
2018-11-20 10:54 METAR KMIV 201554Z AUTO 32007KT 4SM HZ BKN014 OVC075 09/06 A2992 RMK AO2 SLP132
                 T00890061 =
2018-11-20 09:54 METAR KMIV 201454Z AUTO 30009KT 3SM BR SCT014 BKN065 OVC080 08/06 A2992 RMK AO2
                 SLP132 60000 T00830061 51008 =
2018-11-20 09:51 METAR KMIV 201451Z AUTO 30008KT 3SM BR SCT014 OVC065 08/07 A2992 RMK AO2 =
2018-11-20 09:18 METAR KMIV 201418Z AUTO 30007KT 2 1/2SM BR FEW008 BKN012 OVC060 09/07 A2991 RMK
                 AO2 T00890072 =
2018-11-20 08:54 METAR KMIV 201354Z AUTO 30006KT 2SM BR BKN006 OVC011 09/08 A2990 RMK AO2 CIG
                 004V009 SLP125 T00890078 =
2018-11-20 08:33 METAR KMIV 201333Z AUTO 28004KT 2SM BR BKN006 09/08 A2990 RMK AO2 CIG 004V008
                 T00890083 =
2018-11-20 07:54 METAR KMIV 201254Z AUTO 27006KT 1 3/4SM BR BKN006 OVC060 08/08 A2990 RMK AO2
                 RAB14E25 CIG 003V009 SLP124 P0000 T00830083 =
2018-11-20 07:33 METAR KMIV 201233Z AUTO 28006KT 1 3/4SM BR BKN004 OVC055 09/08 A2989 RMK AO2
                 RAB14E25 P0000 T00890083 =
2018-11-20 06:54 METAR KMIV 201154Z AUTO 28005KT 2 1/2SM BR OVC004 08/08 A2988 RMK AO2 SLP116
                 60000 T00830083 10083 20033 53005 =
2018-11-20 06:35 METAR KMIV 201135Z AUTO 29004KT 2SM BR BKN005 OVC060 08/08 A2987 RMK AO2
                 T00830083 =
2018-11-20 06:27 METAR KMIV 201127Z AUTO 27005KT 2SM BR BKN004 OVC060 08/08 A2988 RMK AO2
                 T00830083 =
2018-11-20 06:18 METAR KMIV 201118Z AUTO 24003KT 2SM BR SCT004 OVC065 08/08 A2987 RMK AO2
                 T00830083 =
2018-11-20 05:54 METAR KMIV 201054Z AUTO 27006KT 2 1/2SM BR BKN065 OVC085 08/08 A2987 RMK AO2
                 RAB0958E12 SLP113 P0000 T00830083 =

Support USWX by starting your Amazon purchase here.